TimeEDT,TemperatureF,Dew PointF,Humidity,Sea Level PressureIn,VisibilityMPH,Wind Direction,Wind SpeedMPH,Gust SpeedMPH,PrecipitationIn,Events,Conditions,WindDirDegrees,DateUTC
12:54 AM,43.0,37.0,80,29.86,10.0,West,13.8,-,N/A,,Clear,270,2012-10-11 04:54:00
1:54 AM,43.0,35.1,74,29.88,10.0,West,15.0,-,N/A,,Clear,270,2012-10-11 05:54:00
2:54 AM,43.0,35.1,74,29.88,10.0,West,11.5,18.4,N/A,,Mostly Cloudy,270,2012-10-11 06:54:00
3:54 AM,42.1,33.1,70,29.91,10.0,West,15.0,24.2,N/A,,Clear,270,2012-10-11 07:54:00
4:54 AM,39.9,33.1,77,29.94,10.0,West,9.2,-,N/A,,Clear,270,2012-10-11 08:54:00
5:54 AM,39.9,32.0,73,29.96,10.0,West,10.4,21.9,N/A,,Partly Cloudy,280,2012-10-11 09:54:00
6:54 AM,41.0,32.0,70,30.00,10.0,WSW,10.4,-,N/A,,Overcast,240,2012-10-11 10:54:00
7:54 AM,41.0,33.1,73,30.04,10.0,WSW,10.4,-,N/A,,Overcast,250,2012-10-11 11:54:00
8:06 AM,41.0,33.8,76,30.07,10.0,WSW,11.5,-,N/A,,Overcast,250,2012-10-11 12:06:00
8:54 AM,42.1,34.0,73,30.08,10.0,West,12.7,-,0.00,,Overcast,270,2012-10-11 12:54:00
9:31 AM,42.8,35.6,76,30.10,10.0,West,16.1,21.9,0.00,Rain,Light Rain,280,2012-10-11 13:31:00
9:38 AM,42.8,35.6,76,30.10,9.0,West,11.5,21.9,0.00,Rain,Light Rain,280,2012-10-11 13:38:00
9:54 AM,42.1,36.0,79,30.10,9.0,West,13.8,23.0,0.00,Rain,Light Rain,280,2012-10-11 13:54:00
10:54 AM,46.0,36.0,68,30.10,10.0,West,16.1,26.5,0.00,,Mostly Cloudy,280,2012-10-11 14:54:00
11:13 AM,46.4,35.6,66,30.11,10.0,WNW,15.0,32.2,N/A,,Mostly Cloudy,290,2012-10-11 15:13:00
11:29 AM,44.6,33.8,66,30.12,10.0,West,18.4,25.3,N/A,,Mostly Cloudy,280,2012-10-11 15:29:00
11:36 AM,44.6,33.8,66,30.11,10.0,WNW,15.0,23.0,N/A,,Mostly Cloudy,300,2012-10-11 15:36:00
11:54 AM,46.0,33.1,61,30.11,10.0,WNW,15.0,24.2,N/A,,Mostly Cloudy,290,2012-10-11 15:54:00
12:54 PM,46.9,32.0,56,30.10,10.0,West,17.3,27.6,N/A,,Scattered Clouds,280,2012-10-11 16:54:00
1:54 PM,50.0,33.1,52,30.09,10.0,WNW,12.7,21.9,N/A,,Mostly Cloudy,290,2012-10-11 17:54:00
2:54 PM,51.1,33.1,50,30.08,10.0,Variable,5.8,-,N/A,,Partly Cloudy,0,2012-10-11 18:54:00
3:54 PM,51.1,32.0,48,30.07,10.0,West,11.5,-,N/A,,Partly Cloudy,260,2012-10-11 19:54:00
4:54 PM,51.1,30.9,46,30.08,10.0,West,6.9,-,N/A,,Clear,280,2012-10-11 20:54:00
6:54 PM,45.0,33.1,63,30.08,10.0,WSW,3.5,-,N/A,,Clear,240,2012-10-11 22:54:00
7:54 PM,39.9,34.0,79,30.09,10.0,Calm,Calm,-,N/A,,Clear,0,2012-10-11 23:54:00
9:54 PM,36.0,34.0,93,30.09,10.0,ENE,3.5,-,N/A,,Clear,60,2012-10-12 01:54:00
10:54 PM,37.9,34.0,86,30.07,10.0,Calm,Calm,-,N/A,,Clear,0,2012-10-12 02:54:00
11:54 PM,45.0,33.1,63,30.05,10.0,SW,8.1,-,N/A,,Clear,230,2012-10-12 03:54:00